createdAt,value
2022-08-08T00:01:07.987Z,2.22
2022-08-08T00:06:28.663Z,1.60
2022-08-08T00:11:47.070Z,1.35
2022-08-08T00:17:23.463Z,1.20
2022-08-08T00:22:31.623Z,2.22
2022-08-08T00:27:38.777Z,1.38
2022-08-08T00:32:47.950Z,2.50
2022-08-08T00:38:17.106Z,3.08
2022-08-08T00:44:04.182Z,2.45
2022-08-08T00:49:59.341Z,3.00
2022-08-08T00:55:53.974Z,1.48
2022-08-08T01:01:11.117Z,3.42
2022-08-08T01:06:34.789Z,5.75
2022-08-08T01:12:14.486Z,4.93
2022-08-08T01:17:55.708Z,1.85
2022-08-08T01:24:03.193Z,1.30
2022-08-08T01:29:12.682Z,1.23
2022-08-08T01:34:52.169Z,1.83
2022-08-08T01:40:14.787Z,1.30
2022-08-08T01:45:56.486Z,1.65
2022-08-08T01:51:31.745Z,2.33
2022-08-08T01:56:53.725Z,1.95
2022-08-08T02:02:09.493Z,4.95
2022-08-08T02:07:24.873Z,1.20
2022-08-08T02:12:33.872Z,1.23
2022-08-08T02:17:44.840Z,1.40
2022-08-08T02:22:57.535Z,2.00
2022-08-08T02:28:04.912Z,2.35
2022-08-08T02:33:21.506Z,5.03
2022-08-08T02:38:54.087Z,1.52
2022-08-08T02:44:38.730Z,2.15
2022-08-08T02:50:17.696Z,2.17
2022-08-08T02:56:01.469Z,1.77
2022-08-08T03:01:26.628Z,1.88
2022-08-08T03:07:11.108Z,1.55
2022-08-08T03:13:02.600Z,4.20
2022-08-08T03:18:13.606Z,3.00
2022-08-08T03:23:18.153Z,2.05
2022-08-08T03:28:28.347Z,1.25
2022-08-08T03:33:58.137Z,1.90
2022-08-08T03:39:14.377Z,2.60
2022-08-08T03:44:17.862Z,1.77
2022-08-08T03:49:58.692Z,2.40
2022-08-08T03:55:02.646Z,2.42
2022-08-08T04:00:18.193Z,1.55
2022-08-08T04:05:27.363Z,2.95
2022-08-08T04:10:34.102Z,1.65
2022-08-08T04:15:39.210Z,4.70
2022-08-08T04:20:57.702Z,3.10
2022-08-08T04:26:06.656Z,3.38
2022-08-08T04:31:11.964Z,1.95
2022-08-08T04:36:34.421Z,3.75
2022-08-08T04:41:38.669Z,2.00
2022-08-08T04:46:41.155Z,1.70
2022-08-08T04:51:55.076Z,2.10
2022-08-08T04:57:01.740Z,3.92
2022-08-08T05:02:04.441Z,3.20
2022-08-08T05:07:07.101Z,2.00
2022-08-08T05:12:20.376Z,3.00
2022-08-08T05:17:53.477Z,2.80
2022-08-08T05:22:56.138Z,4.90
2022-08-08T05:28:01.933Z,3.85
2022-08-08T05:33:04.564Z,5.28
2022-08-08T05:43:39.978Z,3.22
2022-08-08T05:48:58.953Z,3.22
2022-08-08T05:54:29.000Z,3.08
2022-08-08T06:00:00.683Z,1.90
2022-08-08T06:04:56.033Z,2.00
2022-08-08T06:10:02.013Z,2.78
2022-08-08T06:15:08.744Z,4.22
2022-08-08T06:20:16.342Z,2.03
2022-08-08T06:25:18.961Z,1.98
2022-08-08T06:30:44.239Z,2.40
2022-08-08T06:36:08.244Z,3.15
2022-08-08T06:41:13.385Z,6.43
2022-08-08T06:46:23.765Z,3.13
2022-08-08T06:51:31.165Z,3.33
2022-08-08T06:56:51.541Z,4.05
2022-08-08T07:02:26.323Z,4.25
2022-08-08T07:07:37.401Z,2.65
2022-08-08T07:12:42.944Z,2.83
2022-08-08T07:18:01.923Z,1.85
2022-08-08T07:23:23.326Z,2.95
2022-08-08T07:28:31.559Z,2.10
2022-08-08T07:33:37.951Z,3.22
2022-08-08T07:38:57.646Z,4.22
2022-08-08T07:44:38.086Z,2.00
2022-08-08T07:49:29.832Z,2.70
2022-08-08T07:54:40.778Z,3.47
2022-08-08T07:59:52.335Z,3.28
2022-08-08T08:05:03.826Z,2.90
2022-08-08T08:10:12.711Z,4.40
2022-08-08T08:15:21.638Z,1.45
2022-08-08T08:20:30.997Z,4.60
2022-08-08T08:25:43.702Z,2.05
2022-08-08T08:30:49.320Z,3.15
2022-08-08T08:36:18.661Z,4.60
2022-08-08T08:41:20.264Z,2.95
2022-08-08T08:46:28.634Z,2.58
2022-08-08T08:51:32.974Z,4.30
2022-08-08T08:56:37.465Z,1.65
2022-08-08T09:01:45.622Z,3.20
2022-08-08T09:06:51.674Z,3.28
2022-08-08T09:12:01.451Z,4.05
2022-08-08T09:17:14.222Z,4.22
2022-08-08T09:22:26.116Z,6.13
2022-08-08T09:27:41.876Z,4.25
2022-08-08T09:33:12.640Z,2.47
2022-08-08T09:38:31.999Z,2.80
2022-08-08T09:44:11.387Z,5.38
2022-08-08T09:49:41.042Z,1.73
2022-08-08T09:54:44.111Z,3.63
2022-08-08T10:00:14.659Z,4.18
2022-08-08T10:05:22.835Z,1.48
2022-08-08T10:15:39.173Z,3.53
2022-08-08T10:20:51.383Z,3.72
2022-08-08T10:26:04.680Z,1.98
2022-08-08T10:31:48.557Z,1.67
2022-08-08T10:36:52.953Z,1.65
2022-08-08T10:42:16.638Z,2.42
2022-08-08T10:47:21.552Z,2.90
2022-08-08T10:52:30.693Z,2.45
2022-08-08T10:57:50.384Z,2.97
2022-08-08T11:02:56.589Z,2.60
2022-08-08T11:08:31.362Z,1.52
2022-08-08T11:13:28.679Z,2.38
2022-08-08T11:18:35.316Z,5.10
2022-08-08T11:23:41.985Z,1.98
2022-08-08T11:28:47.160Z,2.38
2022-08-08T11:34:01.701Z,1.73
2022-08-08T11:39:12.677Z,1.55
2022-08-08T11:44:16.866Z,5.45
2022-08-08T11:49:32.246Z,2.88
2022-08-08T11:54:44.549Z,1.60
2022-08-08T12:05:13.198Z,1.38
2022-08-08T12:10:18.068Z,1.58
2022-08-08T12:15:29.428Z,4.63
2022-08-08T12:20:38.627Z,4.95
2022-08-08T12:25:52.485Z,2.38
2022-08-08T12:31:06.538Z,1.52
2022-08-08T12:36:13.721Z,1.52
2022-08-08T12:41:35.114Z,3.25
2022-08-08T12:46:40.710Z,1.58
2022-08-08T12:51:50.137Z,2.45
2022-08-08T12:57:01.532Z,1.30
2022-08-08T13:02:08.009Z,3.50
2022-08-08T13:07:16.947Z,4.40
2022-08-08T13:12:37.710Z,3.35
2022-08-08T13:18:08.261Z,1.90
2022-08-08T13:23:30.955Z,2.78
2022-08-08T13:28:32.020Z,1.53
2022-08-08T13:33:42.259Z,1.48
2022-08-08T13:38:45.942Z,2.08
2022-08-08T13:43:50.999Z,1.98
2022-08-08T13:49:11.579Z,1.80
2022-08-08T13:54:21.676Z,2.75
2022-08-08T13:59:32.894Z,1.88
2022-08-08T14:04:37.394Z,2.65
2022-08-08T14:10:05.071Z,2.00
2022-08-08T14:15:24.750Z,2.38
2022-08-08T14:20:56.713Z,1.63
2022-08-08T14:26:10.525Z,1.75
2022-08-08T14:31:20.414Z,2.33
2022-08-08T14:36:34.969Z,2.37
2022-08-08T14:41:45.357Z,3.33
2022-08-08T14:47:00.193Z,4.15
2022-08-08T14:52:09.925Z,2.67
2022-08-08T14:57:16.430Z,2.55
2022-08-08T15:02:25.576Z,2.42
2022-08-08T15:07:39.374Z,3.78
2022-08-08T15:12:44.574Z,4.13
2022-08-08T15:17:48.393Z,3.47
2022-08-08T15:22:52.343Z,2.40
2022-08-08T15:28:32.556Z,6.13
2022-08-08T15:33:34.997Z,4.05
2022-08-08T15:38:40.639Z,5.65
2022-08-08T15:44:00.853Z,5.15
2022-08-08T15:49:04.840Z,2.90
2022-08-08T15:54:37.364Z,5.63
2022-08-08T16:00:05.469Z,4.68
2022-08-08T16:04:54.672Z,2.58
2022-08-08T16:13:14.267Z,3.53
2022-08-08T16:15:25.022Z,2.88
2022-08-08T16:20:35.495Z,1.50
2022-08-08T16:25:46.252Z,1.77
2022-08-08T16:30:57.236Z,4.22
2022-08-08T16:36:00.902Z,3.30
2022-08-08T16:41:04.752Z,3.60
2022-08-08T16:46:36.356Z,3.90
2022-08-08T16:55:06.466Z,3.90
2022-08-08T16:57:03.560Z,1.65
2022-08-08T17:02:42.972Z,2.88
2022-08-08T17:07:42.363Z,5.30
2022-08-08T17:12:53.025Z,3.42
2022-08-08T17:18:02.911Z,1.98
2022-08-08T17:23:18.130Z,3.15
2022-08-08T17:28:34.888Z,4.85
2022-08-08T17:34:48.382Z,2.85
2022-08-08T17:39:05.535Z,1.45
2022-08-08T17:44:26.988Z,1.50
2022-08-08T17:49:42.829Z,2.65
2022-08-08T17:54:46.493Z,1.95
2022-08-08T17:59:58.578Z,2.03
2022-08-08T18:05:04.991Z,6.22
2022-08-08T18:10:08.486Z,3.55
2022-08-08T18:20:43.932Z,4.13
2022-08-08T18:25:38.119Z,3.10
2022-08-08T18:30:43.273Z,4.10
2022-08-08T18:35:48.483Z,2.95
2022-08-08T18:40:51.496Z,2.35
2022-08-08T18:46:56.600Z,3.42
2022-08-08T18:51:48.319Z,2.00
2022-08-08T18:56:44.185Z,3.03
2022-08-08T19:02:14.282Z,2.03
2022-08-08T19:07:10.453Z,2.22
2022-08-08T19:12:13.469Z,3.78
2022-08-08T19:17:28.859Z,3.05
2022-08-08T19:22:39.976Z,7.30
2022-08-08T19:27:55.894Z,7.47
2022-08-08T19:33:01.600Z,7.63
2022-08-08T19:38:04.475Z,13.52
2022-08-08T19:43:11.582Z,17.30
2022-08-08T19:48:28.969Z,21.15
2022-08-08T19:53:53.328Z,25.75
2022-08-08T19:58:56.062Z,14.38
2022-08-08T20:04:03.455Z,14.52
2022-08-08T20:09:09.047Z,9.68
2022-08-08T20:14:32.962Z,5.47
2022-08-08T20:19:42.354Z,10.27
2022-08-08T20:24:46.157Z,8.40
2022-08-08T20:30:00.401Z,10.88
2022-08-08T20:35:06.276Z,16.52
2022-08-08T20:40:11.978Z,21.65
2022-08-08T20:45:54.956Z,28.65
2022-08-08T20:50:43.998Z,17.00
2022-08-08T20:55:51.137Z,24.45
2022-08-08T21:00:53.905Z,14.93
2022-08-08T21:05:58.771Z,6.57
2022-08-08T21:11:02.117Z,7.50
2022-08-08T21:16:18.152Z,6.88
2022-08-08T21:21:39.835Z,8.00
2022-08-08T21:26:44.656Z,9.02
2022-08-08T21:31:58.899Z,4.43
2022-08-08T21:37:11.410Z,7.70
2022-08-08T21:42:18.908Z,4.70
2022-08-08T21:48:04.176Z,2.70
2022-08-08T21:54:36.673Z,4.55
2022-08-08T21:58:15.686Z,7.20
2022-08-08T22:03:20.245Z,4.72
2022-08-08T22:08:24.519Z,8.50
2022-08-08T22:13:27.018Z,2.90
2022-08-08T22:18:52.988Z,3.55
2022-08-08T22:23:58.086Z,2.58
2022-08-08T22:29:14.136Z,5.57
2022-08-08T22:34:27.030Z,5.40
2022-08-08T22:44:54.135Z,4.87
2022-08-08T22:50:00.033Z,4.15
2022-08-08T22:55:06.321Z,5.53
2022-08-08T23:00:13.343Z,5.00
2022-08-08T23:05:16.290Z,2.90
2022-08-08T23:10:21.559Z,3.75
2022-08-08T23:16:41.202Z,4.05
2022-08-08T23:20:54.549Z,4.80
2022-08-08T23:25:59.070Z,4.30
2022-08-08T23:31:02.298Z,6.45
2022-08-08T23:36:07.970Z,3.10
2022-08-08T23:41:17.495Z,3.42
2022-08-08T23:49:07.322Z,3.72
2022-08-08T23:52:07.191Z,7.00
2022-08-08T23:57:25.561Z,5.80
